createdAt,value
2018-12-09T00:03:50.241Z,98104.35
2018-12-09T00:08:46.365Z,98100.90
2018-12-09T00:13:42.388Z,98106.09
2018-12-09T00:18:38.482Z,98089.22
2018-12-09T00:23:34.592Z,98090.01
2018-12-09T00:28:30.694Z,98076.45
2018-12-09T00:33:26.711Z,98073.84
2018-12-09T00:38:22.745Z,98065.70
2018-12-09T00:43:18.768Z,98070.20
2018-12-09T00:48:14.774Z,98070.49
2018-12-09T00:53:10.865Z,98071.45
2018-12-09T00:58:06.891Z,98067.09
2018-12-09T01:03:03.238Z,98069.98
2018-12-09T01:07:59.284Z,98076.91
2018-12-09T01:12:55.413Z,98070.61
2018-12-09T01:17:51.585Z,98065.98
2018-12-09T01:22:47.615Z,98073.25
2018-12-09T01:27:43.686Z,98081.48
2018-12-09T01:32:40.359Z,98067.38
2018-12-09T01:37:36.404Z,98077.03
2018-12-09T01:42:32.474Z,98083.81
2018-12-09T01:47:28.510Z,98097.67
2018-12-09T01:52:24.555Z,98097.72
2018-12-09T01:57:20.585Z,98095.52
2018-12-09T02:02:16.666Z,98088.49
2018-12-09T02:07:12.661Z,98091.20
2018-12-09T02:12:08.722Z,98085.81
2018-12-09T02:17:04.890Z,98101.03
2018-12-09T02:22:00.953Z,98102.53
2018-12-09T02:26:57.001Z,98096.67
2018-12-09T02:31:53.045Z,98108.17
2018-12-09T02:36:49.491Z,98112.63
2018-12-09T02:41:45.586Z,98102.45
2018-12-09T02:46:41.630Z,98113.30
2018-12-09T02:51:37.665Z,98119.65
2018-12-09T02:56:33.709Z,98117.23
2018-12-09T03:01:29.741Z,98128.23
2018-12-09T03:06:25.768Z,98127.98
2018-12-09T03:11:22.142Z,98134.58
2018-12-09T03:16:18.202Z,98144.73
2018-12-09T03:21:14.242Z,98144.94
2018-12-09T03:26:10.374Z,98139.13
2018-12-09T03:31:16.146Z,98135.97
2018-12-09T03:36:12.272Z,98129.67
2018-12-09T03:41:08.293Z,98122.11
2018-12-09T03:46:04.460Z,98128.66
2018-12-09T03:51:00.494Z,98139.61
2018-12-09T03:55:56.509Z,98147.39
2018-12-09T04:00:52.527Z,98135.20
2018-12-09T04:05:48.622Z,98137.94
2018-12-09T04:10:44.655Z,98146.62
2018-12-09T04:15:41.107Z,98161.02
2018-12-09T04:20:37.524Z,98156.55
2018-12-09T04:25:33.591Z,98174.59
2018-12-09T04:30:29.637Z,98166.66
2018-12-09T04:35:25.660Z,98173.00
2018-12-09T04:40:21.698Z,98167.03
2018-12-09T04:45:17.731Z,98173.58
2018-12-09T04:50:13.781Z,98179.84
2018-12-09T04:55:10.553Z,98175.35
2018-12-09T05:00:18.856Z,98180.83
2018-12-09T05:05:14.898Z,98177.84
2018-12-09T05:10:10.929Z,98187.58
2018-12-09T05:15:06.967Z,98189.59
2018-12-09T05:20:03.092Z,98194.61
2018-12-09T05:24:59.915Z,98208.78
2018-12-09T05:29:56.198Z,98204.03
2018-12-09T05:34:52.215Z,98211.44
2018-12-09T05:39:48.234Z,98198.34
2018-12-09T05:44:44.265Z,98201.41
2018-12-09T05:49:40.289Z,98214.80
2018-12-09T05:54:37.590Z,98242.30
2018-12-09T05:59:33.685Z,98238.08
2018-12-09T06:04:29.705Z,98233.95
2018-12-09T06:09:25.814Z,98251.07
2018-12-09T06:14:21.823Z,98250.30
2018-12-09T06:19:18.041Z,98261.02
2018-12-09T06:24:21.321Z,98256.17
2018-12-09T06:29:17.543Z,98254.67
2018-12-09T06:34:13.590Z,98242.06
2018-12-09T06:39:09.661Z,98250.30
2018-12-09T06:44:05.772Z,98268.48
2018-12-09T06:49:01.818Z,98283.81
2018-12-09T06:54:00.283Z,98286.33
2018-12-09T07:04:01.126Z,98290.69
2018-12-09T07:08:57.529Z,98297.17
2018-12-09T07:13:54.029Z,98304.11
2018-12-09T07:18:51.303Z,98298.79
2018-12-09T07:23:47.913Z,98307.66
2018-12-09T07:28:44.539Z,98311.41
2018-12-09T07:33:42.189Z,98321.78
2018-12-09T07:38:38.317Z,98327.62
2018-12-09T07:43:35.596Z,98330.19
2018-12-09T07:48:31.741Z,98333.09
2018-12-09T07:53:27.919Z,98347.02
2018-12-09T07:58:27.263Z,98345.34
2018-12-09T08:03:29.728Z,98346.75
2018-12-09T08:08:25.766Z,98349.31
2018-12-09T08:13:21.829Z,98359.27
2018-12-09T08:18:17.918Z,98366.78
2018-12-09T08:23:14.225Z,98380.03
2018-12-09T08:28:10.328Z,98413.23
2018-12-09T08:33:06.369Z,98418.47
2018-12-09T08:38:02.420Z,98428.47
2018-12-09T08:42:58.445Z,98453.27
2018-12-09T08:47:54.621Z,98465.89
2018-12-09T08:52:50.651Z,98488.38
2018-12-09T08:57:46.691Z,98496.15
2018-12-09T09:02:42.767Z,98507.63
2018-12-09T09:07:38.822Z,98518.99
2018-12-09T09:12:34.854Z,98517.91
2018-12-09T09:17:30.880Z,98525.05
2018-12-09T09:22:26.933Z,98535.16
2018-12-09T09:27:23.048Z,98543.99
2018-12-09T09:32:19.095Z,98551.78
2018-12-09T09:37:15.204Z,98563.65
2018-12-09T09:42:11.238Z,98577.03
2018-12-09T09:47:07.295Z,98579.58
2018-12-09T09:52:03.626Z,98588.80
2018-12-09T09:56:59.694Z,98595.77
2018-12-09T10:01:55.757Z,98600.58
2018-12-09T10:06:51.808Z,98614.22
2018-12-09T10:11:47.864Z,98616.73
2018-12-09T10:16:43.919Z,98629.03
2018-12-09T10:21:39.962Z,98630.22
2018-12-09T10:26:36.552Z,98622.30
2018-12-09T10:31:32.830Z,98646.38
2018-12-09T10:36:28.946Z,98639.08
2018-12-09T10:41:25.071Z,98656.39
2018-12-09T10:46:21.908Z,98653.29
2018-12-09T10:51:18.177Z,98661.06
2018-12-09T10:56:14.282Z,98668.98
2018-12-09T11:01:16.330Z,98678.48
2018-12-09T11:06:12.510Z,98668.76
2018-12-09T11:11:08.568Z,98676.40
2018-12-09T11:16:05.236Z,98677.70
2018-12-09T11:21:01.733Z,98692.09
2018-12-09T11:25:57.852Z,98689.48
2018-12-09T11:30:53.902Z,98697.61
2018-12-09T11:35:50.036Z,98700.70
2018-12-09T11:40:46.168Z,98707.75
2018-12-09T11:45:42.207Z,98716.97
2018-12-09T11:50:38.349Z,98721.64
2018-12-09T11:55:34.402Z,98722.09
2018-12-09T12:00:30.563Z,98727.03
2018-12-09T12:05:26.733Z,98725.34
2018-12-09T12:10:22.782Z,98731.95
2018-12-09T12:15:18.855Z,98741.60
2018-12-09T12:20:14.887Z,98741.57
2018-12-09T12:25:13.083Z,98746.28
2018-12-09T12:30:09.204Z,98746.72
2018-12-09T12:35:05.351Z,98760.94
2018-12-09T12:40:01.420Z,98747.53
2018-12-09T12:44:57.469Z,98761.59
2018-12-09T12:49:53.845Z,98766.13
2018-12-09T12:54:50.601Z,98774.00
2018-12-09T12:59:46.638Z,98774.00
2018-12-09T13:04:42.672Z,98784.16
2018-12-09T13:09:38.733Z,98786.13
2018-12-09T13:14:34.795Z,98794.98
2018-12-09T13:19:30.858Z,98806.03
2018-12-09T13:24:32.611Z,98813.15
2018-12-09T13:29:28.813Z,98815.77
2018-12-09T13:34:25.020Z,98827.39
2018-12-09T13:39:22.276Z,98840.38
2018-12-09T13:44:18.376Z,98849.66
2018-12-09T13:49:14.405Z,98853.17
2018-12-09T13:54:14.508Z,98858.49
2018-12-09T13:59:10.678Z,98872.92
2018-12-09T14:04:06.712Z,98886.73
2018-12-09T14:09:05.093Z,98892.56
2018-12-09T14:14:01.143Z,98910.75
2018-12-09T14:18:57.222Z,98922.33
2018-12-09T14:23:53.269Z,98939.91
2018-12-09T14:28:49.349Z,98967.67
2018-12-09T14:33:45.396Z,98976.67
2018-12-09T14:38:41.454Z,98979.42
2018-12-09T14:43:37.546Z,98995.13
2018-12-09T14:48:33.620Z,99010.84
2018-12-09T14:53:29.680Z,99018.87
2018-12-09T14:58:25.734Z,99034.80
2018-12-09T15:03:21.802Z,99040.17
2018-12-09T15:08:17.892Z,99050.15
2018-12-09T15:13:14.142Z,99061.02
2018-12-09T15:18:10.632Z,99071.56
2018-12-09T15:23:06.711Z,99082.65
2018-12-09T15:28:02.793Z,99106.80
2018-12-09T15:32:59.569Z,99121.81
2018-12-09T15:37:55.605Z,99130.42
2018-12-09T15:42:51.634Z,99138.27
2018-12-09T15:47:48.018Z,99143.33
2018-12-09T15:52:44.319Z,99159.30
2018-12-09T15:57:40.844Z,99161.73
2018-12-09T16:02:37.601Z,99177.42
2018-12-09T16:07:33.958Z,99187.46
2018-12-09T16:12:30.402Z,99196.47
2018-12-09T16:17:26.867Z,99209.17
2018-12-09T16:22:22.902Z,99217.84
2018-12-09T16:27:18.942Z,99236.17
2018-12-09T16:32:17.807Z,99246.55
2018-12-09T16:37:14.285Z,99266.67
2018-12-09T16:42:10.401Z,99271.30
2018-12-09T16:47:06.438Z,99283.38
2018-12-09T16:52:02.488Z,99292.63
2018-12-09T16:56:58.509Z,99302.99
2018-12-09T17:01:54.563Z,99318.20
2018-12-09T17:06:50.668Z,99337.80
2018-12-09T17:11:46.689Z,99350.45
2018-12-09T17:16:42.729Z,99366.96
2018-12-09T17:21:38.760Z,99386.36
2018-12-09T17:26:34.798Z,99403.62
2018-12-09T17:31:30.833Z,99411.47
2018-12-09T17:36:26.881Z,99431.19
2018-12-09T17:41:25.160Z,99437.81
2018-12-09T17:46:20.941Z,99454.02
2018-12-09T17:51:16.961Z,99461.46
2018-12-09T17:56:13.001Z,99476.55
2018-12-09T18:01:11.049Z,99488.51
2018-12-09T18:06:07.147Z,99494.75
2018-12-09T18:11:03.621Z,99511.85
2018-12-09T18:16:01.478Z,99520.31
2018-12-09T18:21:07.750Z,99532.09
2018-12-09T18:26:03.769Z,99546.75
2018-12-09T18:30:59.949Z,99558.83
2018-12-09T18:35:55.978Z,99572.89
2018-12-09T18:40:52.010Z,99585.17
2018-12-09T18:45:48.029Z,99594.75
2018-12-09T18:50:45.365Z,99602.28
2018-12-09T18:55:41.393Z,99612.03
2018-12-09T19:00:37.425Z,99633.98
2018-12-09T19:05:33.458Z,99646.34
2018-12-09T19:10:29.482Z,99659.81
2018-12-09T19:15:25.494Z,99675.51
2018-12-09T19:20:21.531Z,99687.95
2018-12-09T19:25:17.569Z,99700.75
2018-12-09T19:30:13.591Z,99711.45
2018-12-09T19:35:09.580Z,99722.45
2018-12-09T19:40:05.593Z,99735.47
2018-12-09T19:45:01.717Z,99747.50
2018-12-09T19:49:57.770Z,99752.68
2018-12-09T19:54:53.873Z,99764.70
2018-12-09T19:59:49.888Z,99768.31
2018-12-09T20:04:46.921Z,99774.84
2018-12-09T20:09:43.185Z,99790.78
2018-12-09T20:14:39.196Z,99793.87
2018-12-09T20:19:35.261Z,99808.23
2018-12-09T20:24:31.307Z,99814.22
2018-12-09T20:29:27.320Z,99820.88
2018-12-09T20:34:23.347Z,99829.20
2018-12-09T20:39:19.891Z,99844.08
2018-12-09T20:44:15.933Z,99849.44
2018-12-09T20:49:11.969Z,99852.11
2018-12-09T20:54:07.966Z,99853.91
2018-12-09T20:59:03.996Z,99860.98
2018-12-09T21:04:00.017Z,99868.53
2018-12-09T21:08:56.031Z,99881.75
2018-12-09T21:13:52.147Z,99883.63
2018-12-09T21:18:48.194Z,99879.66
2018-12-09T21:23:44.322Z,99896.46
2018-12-09T21:28:40.345Z,99900.98
2018-12-09T21:33:36.598Z,99926.83
2018-12-09T21:38:32.758Z,99931.86
2018-12-09T21:43:28.779Z,99943.55
2018-12-09T21:48:24.795Z,99942.11
2018-12-09T21:53:20.821Z,99963.67
2018-12-09T21:58:16.853Z,99963.91
2018-12-09T22:03:12.890Z,99974.12
2018-12-09T22:08:08.941Z,99976.14
2018-12-09T22:13:04.953Z,99989.30
2018-12-09T22:18:00.994Z,100009.30
2018-12-09T22:22:57.013Z,100017.70
2018-12-09T22:27:53.050Z,100012.57
2018-12-09T22:32:49.077Z,100022.22
2018-12-09T22:37:45.120Z,100028.04
2018-12-09T22:42:41.141Z,100036.53
2018-12-09T22:47:37.166Z,100056.84
2018-12-09T22:52:33.277Z,100067.63
2018-12-09T22:57:29.318Z,100076.62
2018-12-09T23:02:31.930Z,100082.53
2018-12-09T23:07:33.952Z,100079.95
2018-12-09T23:12:30.073Z,100101.34
2018-12-09T23:17:26.090Z,100109.36
2018-12-09T23:22:22.105Z,100104.25
2018-12-09T23:27:18.121Z,100114.13
2018-12-09T23:32:18.060Z,100117.72
2018-12-09T23:37:14.089Z,100123.33
2018-12-09T23:42:10.382Z,100132.75
2018-12-09T23:47:06.393Z,100140.13
2018-12-09T23:52:02.539Z,100153.70
2018-12-09T23:56:58.561Z,100160.83
